sensor_id;sensor_type;location;lat;lon;timestamp;temperature;humidity
43089;DHT22;28709;52.030;5.652;2023-09-18T00:00:44;19.80;99.90
43089;DHT22;28709;52.030;5.652;2023-09-18T00:03:10;19.70;99.90
43089;DHT22;28709;52.030;5.652;2023-09-18T00:05:35;19.80;99.90
43089;DHT22;28709;52.030;5.652;2023-09-18T00:08:01;19.70;99.90
43089;DHT22;28709;52.030;5.652;2023-09-18T00:10:30;19.70;99.90
43089;DHT22;28709;52.030;5.652;2023-09-18T00:12:56;19.70;99.90
43089;DHT22;28709;52.030;5.652;2023-09-18T00:15:22;19.70;99.90
43089;DHT22;28709;52.030;5.652;2023-09-18T00:17:48;19.70;99.90
43089;DHT22;28709;52.030;5.652;2023-09-18T00:20:14;19.60;99.90
43089;DHT22;28709;52.030;5.652;2023-09-18T00:22:42;19.60;99.90
43089;DHT22;28709;52.030;5.652;2023-09-18T00:25:07;19.60;99.90
43089;DHT22;28709;52.030;5.652;2023-09-18T00:27:33;19.60;99.90
43089;DHT22;28709;52.030;5.652;2023-09-18T00:29:59;19.60;99.90
43089;DHT22;28709;52.030;5.652;2023-09-18T00:32:24;19.50;99.90
43089;DHT22;28709;52.030;5.652;2023-09-18T00:34:50;19.50;99.90
43089;DHT22;28709;52.030;5.652;2023-09-18T00:37:16;19.50;99.90
43089;DHT22;28709;52.030;5.652;2023-09-18T00:39:42;19.50;99.90
43089;DHT22;28709;52.030;5.652;2023-09-18T00:42:08;19.50;99.90
43089;DHT22;28709;52.030;5.652;2023-09-18T00:44:39;19.50;99.90
43089;DHT22;28709;52.030;5.652;2023-09-18T00:47:07;19.50;99.90
43089;DHT22;28709;52.030;5.652;2023-09-18T00:49:32;19.50;99.90
43089;DHT22;28709;52.030;5.652;2023-09-18T00:51:59;19.50;99.90
43089;DHT22;28709;52.030;5.652;2023-09-18T00:54:24;19.40;99.90
43089;DHT22;28709;52.030;5.652;2023-09-18T00:56:51;19.50;99.90
43089;DHT22;28709;52.030;5.652;2023-09-18T00:59:20;19.50;99.90
43089;DHT22;28709;52.030;5.652;2023-09-18T01:01:47;19.50;99.90
43089;DHT22;28709;52.030;5.652;2023-09-18T01:04:14;19.40;99.90
43089;DHT22;28709;52.030;5.652;2023-09-18T01:06:40;19.50;99.90
43089;DHT22;28709;52.030;5.652;2023-09-18T01:09:06;19.50;99.90
43089;DHT22;28709;52.030;5.652;2023-09-18T01:11:54;19.50;99.90
43089;DHT22;28709;52.030;5.652;2023-09-18T01:14:34;19.50;99.90
43089;DHT22;28709;52.030;5.652;2023-09-18T01:17:03;19.50;99.90
43089;DHT22;28709;52.030;5.652;2023-09-18T01:19:46;19.50;99.90
43089;DHT22;28709;52.030;5.652;2023-09-18T01:22:14;19.60;99.90
43089;DHT22;28709;52.030;5.652;2023-09-18T01:24:40;19.60;99.90
43089;DHT22;28709;52.030;5.652;2023-09-18T01:27:13;19.60;99.90
43089;DHT22;28709;52.030;5.652;2023-09-18T01:29:40;19.70;99.90
43089;DHT22;28709;52.030;5.652;2023-09-18T01:32:05;19.70;99.90
43089;DHT22;28709;52.030;5.652;2023-09-18T01:34:37;19.70;99.90
43089;DHT22;28709;52.030;5.652;2023-09-18T01:37:05;19.80;99.90
43089;DHT22;28709;52.030;5.652;2023-09-18T01:39:32;19.80;99.90
43089;DHT22;28709;52.030;5.652;2023-09-18T01:42:03;19.80;99.90
43089;DHT22;28709;52.030;5.652;2023-09-18T01:44:29;19.80;99.90
43089;DHT22;28709;52.030;5.652;2023-09-18T01:46:58;19.80;99.90
43089;DHT22;28709;52.030;5.652;2023-09-18T01:49:42;19.80;99.90
43089;DHT22;28709;52.030;5.652;2023-09-18T01:52:09;19.80;99.90
43089;DHT22;28709;52.030;5.652;2023-09-18T01:54:35;19.80;99.90
43089;DHT22;28709;52.030;5.652;2023-09-18T01:57:02;19.80;99.90
43089;DHT22;28709;52.030;5.652;2023-09-18T01:59:28;19.90;99.90
43089;DHT22;28709;52.030;5.652;2023-09-18T02:01:54;19.90;99.90
43089;DHT22;28709;52.030;5.652;2023-09-18T02:04:20;19.90;99.90
43089;DHT22;28709;52.030;5.652;2023-09-18T02:06:48;20.00;99.90
43089;DHT22;28709;52.030;5.652;2023-09-18T02:09:14;20.00;99.90
43089;DHT22;28709;52.030;5.652;2023-09-18T02:11:43;20.00;99.90
43089;DHT22;28709;52.030;5.652;2023-09-18T02:14:09;20.10;99.90
43089;DHT22;28709;52.030;5.652;2023-09-18T02:16:36;20.10;99.90
43089;DHT22;28709;52.030;5.652;2023-09-18T02:19:03;20.20;99.90
43089;DHT22;28709;52.030;5.652;2023-09-18T02:21:29;20.20;99.90
43089;DHT22;28709;52.030;5.652;2023-09-18T02:23:54;20.20;99.90
43089;DHT22;28709;52.030;5.652;2023-09-18T02:26:21;20.20;99.90
43089;DHT22;28709;52.030;5.652;2023-09-18T02:28:47;20.30;99.90
43089;DHT22;28709;52.030;5.652;2023-09-18T02:31:13;20.30;99.90
43089;DHT22;28709;52.030;5.652;2023-09-18T02:33:39;20.30;99.90
43089;DHT22;28709;52.030;5.652;2023-09-18T02:36:05;20.30;99.90
43089;DHT22;28709;52.030;5.652;2023-09-18T02:38:32;20.30;99.90
43089;DHT22;28709;52.030;5.652;2023-09-18T02:40:58;20.30;99.90
43089;DHT22;28709;52.030;5.652;2023-09-18T02:43:24;20.30;99.90
43089;DHT22;28709;52.030;5.652;2023-09-18T02:45:50;20.30;99.90
43089;DHT22;28709;52.030;5.652;2023-09-18T02:48:17;20.30;99.90
43089;DHT22;28709;52.030;5.652;2023-09-18T02:50:43;20.30;99.90
43089;DHT22;28709;52.030;5.652;2023-09-18T02:53:21;20.30;99.90
43089;DHT22;28709;52.030;5.652;2023-09-18T02:55:49;20.20;99.90
43089;DHT22;28709;52.030;5.652;2023-09-18T02:58:15;20.20;99.90
43089;DHT22;28709;52.030;5.652;2023-09-18T03:00:44;20.20;99.90
43089;DHT22;28709;52.030;5.652;2023-09-18T03:03:11;20.20;99.90
43089;DHT22;28709;52.030;5.652;2023-09-18T03:05:37;20.10;99.90
43089;DHT22;28709;52.030;5.652;2023-09-18T03:08:03;20.20;99.90
43089;DHT22;28709;52.030;5.652;2023-09-18T03:10:40;20.10;99.90
43089;DHT22;28709;52.030;5.652;2023-09-18T03:13:06;20.10;99.90
43089;DHT22;28709;52.030;5.652;2023-09-18T03:15:33;20.10;99.90
43089;DHT22;28709;52.030;5.652;2023-09-18T03:18:00;20.10;99.90
43089;DHT22;28709;52.030;5.652;2023-09-18T03:20:26;20.10;99.90
43089;DHT22;28709;52.030;5.652;2023-09-18T03:22:55;20.10;99.90
43089;DHT22;28709;52.030;5.652;2023-09-18T03:25:21;20.10;99.90
43089;DHT22;28709;52.030;5.652;2023-09-18T03:27:47;20.00;99.90
43089;DHT22;28709;52.030;5.652;2023-09-18T03:30:13;20.10;99.90
43089;DHT22;28709;52.030;5.652;2023-09-18T03:32:41;20.10;99.90
43089;DHT22;28709;52.030;5.652;2023-09-18T03:35:08;20.10;99.90
43089;DHT22;28709;52.030;5.652;2023-09-18T03:37:41;20.10;99.90
43089;DHT22;28709;52.030;5.652;2023-09-18T03:40:07;20.00;99.90
43089;DHT22;28709;52.030;5.652;2023-09-18T03:42:34;20.00;99.90
43089;DHT22;28709;52.030;5.652;2023-09-18T03:44:59;20.00;99.90
43089;DHT22;28709;52.030;5.652;2023-09-18T03:47:25;20.00;99.90
43089;DHT22;28709;52.030;5.652;2023-09-18T03:49:51;20.00;99.90
43089;DHT22;28709;52.030;5.652;2023-09-18T03:52:16;20.00;99.90
43089;DHT22;28709;52.030;5.652;2023-09-18T03:54:42;20.00;99.90
43089;DHT22;28709;52.030;5.652;2023-09-18T03:57:08;20.00;99.90
43089;DHT22;28709;52.030;5.652;2023-09-18T03:59:33;20.00;99.90
43089;DHT22;28709;52.030;5.652;2023-09-18T04:01:59;20.00;99.90
43089;DHT22;28709;52.030;5.652;2023-09-18T04:04:25;20.00;99.90
43089;DHT22;28709;52.030;5.652;2023-09-18T04:06:50;20.00;99.90
43089;DHT22;28709;52.030;5.652;2023-09-18T04:09:16;20.00;99.90
43089;DHT22;28709;52.030;5.652;2023-09-18T04:11:43;19.90;99.90
43089;DHT22;28709;52.030;5.652;2023-09-18T04:14:09;20.00;99.90
43089;DHT22;28709;52.030;5.652;2023-09-18T04:16:34;20.00;99.90
43089;DHT22;28709;52.030;5.652;2023-09-18T04:19:05;19.90;99.90
43089;DHT22;28709;52.030;5.652;2023-09-18T04:21:30;19.90;99.90
43089;DHT22;28709;52.030;5.652;2023-09-18T04:23:56;19.90;99.90
43089;DHT22;28709;52.030;5.652;2023-09-18T04:26:24;19.90;99.90
43089;DHT22;28709;52.030;5.652;2023-09-18T04:28:57;19.90;99.90
43089;DHT22;28709;52.030;5.652;2023-09-18T04:31:23;19.90;99.90
43089;DHT22;28709;52.030;5.652;2023-09-18T04:33:49;19.90;99.90
43089;DHT22;28709;52.030;5.652;2023-09-18T04:36:15;19.90;99.90
43089;DHT22;28709;52.030;5.652;2023-09-18T04:38:41;19.80;99.90
43089;DHT22;28709;52.030;5.652;2023-09-18T04:41:07;19.80;99.90
43089;DHT22;28709;52.030;5.652;2023-09-18T04:43:36;19.70;99.90
43089;DHT22;28709;52.030;5.652;2023-09-18T04:46:02;19.80;99.90
43089;DHT22;28709;52.030;5.652;2023-09-18T04:48:33;19.70;99.90
43089;DHT22;28709;52.030;5.652;2023-09-18T04:50:59;19.70;99.90
43089;DHT22;28709;52.030;5.652;2023-09-18T04:53:27;19.70;99.90
43089;DHT22;28709;52.030;5.652;2023-09-18T04:55:53;19.70;99.90
43089;DHT22;28709;52.030;5.652;2023-09-18T04:58:19;19.70;99.90
43089;DHT22;28709;52.030;5.652;2023-09-18T05:00:44;19.80;99.90
43089;DHT22;28709;52.030;5.652;2023-09-18T05:03:12;19.80;99.90
43089;DHT22;28709;52.030;5.652;2023-09-18T05:05:38;19.80;99.90
43089;DHT22;28709;52.030;5.652;2023-09-18T05:08:06;19.80;99.90
43089;DHT22;28709;52.030;5.652;2023-09-18T05:10:35;19.80;99.90
43089;DHT22;28709;52.030;5.652;2023-09-18T05:13:02;19.80;99.90
43089;DHT22;28709;52.030;5.652;2023-09-18T05:15:29;19.60;99.90
43089;DHT22;28709;52.030;5.652;2023-09-18T05:17:56;19.50;99.90
43089;DHT22;28709;52.030;5.652;2023-09-18T05:20:27;19.30;99.90
43089;DHT22;28709;52.030;5.652;2023-09-18T05:22:54;19.20;99.90
43089;DHT22;28709;52.030;5.652;2023-09-18T05:25:25;19.20;99.90
43089;DHT22;28709;52.030;5.652;2023-09-18T05:27:52;19.10;99.90
43089;DHT22;28709;52.030;5.652;2023-09-18T05:30:29;19.10;99.90
43089;DHT22;28709;52.030;5.652;2023-09-18T05:33:00;19.10;99.90
43089;DHT22;28709;52.030;5.652;2023-09-18T05:35:40;19.10;99.90
43089;DHT22;28709;52.030;5.652;2023-09-18T05:38:06;19.00;99.90
43089;DHT22;28709;52.030;5.652;2023-09-18T05:40:32;19.00;99.90
43089;DHT22;28709;52.030;5.652;2023-09-18T05:42:58;19.10;99.90
43089;DHT22;28709;52.030;5.652;2023-09-18T05:45:24;19.00;99.90
43089;DHT22;28709;52.030;5.652;2023-09-18T05:47:51;19.00;99.90
43089;DHT22;28709;52.030;5.652;2023-09-18T05:50:18;19.00;99.90
43089;DHT22;28709;52.030;5.652;2023-09-18T05:52:47;19.00;99.90
43089;DHT22;28709;52.030;5.652;2023-09-18T05:55:15;19.10;99.90
43089;DHT22;28709;52.030;5.652;2023-09-18T05:57:41;19.00;99.90
43089;DHT22;28709;52.030;5.652;2023-09-18T06:00:07;19.10;99.90
43089;DHT22;28709;52.030;5.652;2023-09-18T06:02:33;19.10;99.90
43089;DHT22;28709;52.030;5.652;2023-09-18T06:05:00;19.10;99.90
43089;DHT22;28709;52.030;5.652;2023-09-18T06:07:27;19.10;99.90
43089;DHT22;28709;52.030;5.652;2023-09-18T06:09:52;19.10;99.90
43089;DHT22;28709;52.030;5.652;2023-09-18T06:12:18;19.10;99.90
43089;DHT22;28709;52.030;5.652;2023-09-18T06:14:44;19.10;99.90
43089;DHT22;28709;52.030;5.652;2023-09-18T06:17:10;19.10;99.90
43089;DHT22;28709;52.030;5.652;2023-09-18T06:19:36;19.10;99.90
43089;DHT22;28709;52.030;5.652;2023-09-18T06:22:02;19.10;99.90
43089;DHT22;28709;52.030;5.652;2023-09-18T06:24:28;19.10;99.90
43089;DHT22;28709;52.030;5.652;2023-09-18T06:26:53;19.10;99.90
43089;DHT22;28709;52.030;5.652;2023-09-18T06:29:19;19.20;99.90
43089;DHT22;28709;52.030;5.652;2023-09-18T06:31:46;19.20;99.90
43089;DHT22;28709;52.030;5.652;2023-09-18T06:34:12;19.20;99.90
43089;DHT22;28709;52.030;5.652;2023-09-18T06:36:37;19.10;99.90
43089;DHT22;28709;52.030;5.652;2023-09-18T06:39:03;19.20;99.90
43089;DHT22;28709;52.030;5.652;2023-09-18T06:41:29;19.10;99.90
43089;DHT22;28709;52.030;5.652;2023-09-18T06:43:54;19.20;99.90
43089;DHT22;28709;52.030;5.652;2023-09-18T06:46:20;19.20;99.90
43089;DHT22;28709;52.030;5.652;2023-09-18T06:48:46;19.20;99.90
43089;DHT22;28709;52.030;5.652;2023-09-18T06:51:15;19.20;99.90
43089;DHT22;28709;52.030;5.652;2023-09-18T06:53:41;19.20;99.90
43089;DHT22;28709;52.030;5.652;2023-09-18T06:56:06;19.20;99.90
43089;DHT22;28709;52.030;5.652;2023-09-18T06:58:34;19.20;99.90
43089;DHT22;28709;52.030;5.652;2023-09-18T07:01:00;19.20;99.90
43089;DHT22;28709;52.030;5.652;2023-09-18T07:03:26;19.20;99.90
43089;DHT22;28709;52.030;5.652;2023-09-18T07:05:51;19.20;99.90
43089;DHT22;28709;52.030;5.652;2023-09-18T07:08:17;19.30;99.90
43089;DHT22;28709;52.030;5.652;2023-09-18T07:10:49;19.30;99.90
43089;DHT22;28709;52.030;5.652;2023-09-18T07:13:15;19.30;99.90
43089;DHT22;28709;52.030;5.652;2023-09-18T07:15:41;19.30;99.90
43089;DHT22;28709;52.030;5.652;2023-09-18T07:18:07;19.30;99.90
43089;DHT22;28709;52.030;5.652;2023-09-18T07:20:32;19.40;99.90
43089;DHT22;28709;52.030;5.652;2023-09-18T07:22:58;19.40;99.90
43089;DHT22;28709;52.030;5.652;2023-09-18T07:25:23;19.40;99.90
43089;DHT22;28709;52.030;5.652;2023-09-18T07:27:49;19.40;99.90
43089;DHT22;28709;52.030;5.652;2023-09-18T07:30:15;19.40;99.90
43089;DHT22;28709;52.030;5.652;2023-09-18T07:32:45;19.40;99.90
43089;DHT22;28709;52.030;5.652;2023-09-18T07:35:11;19.40;99.90
43089;DHT22;28709;52.030;5.652;2023-09-18T07:37:38;19.40;99.90
43089;DHT22;28709;52.030;5.652;2023-09-18T07:40:05;19.40;99.90
43089;DHT22;28709;52.030;5.652;2023-09-18T07:42:31;19.40;99.90
43089;DHT22;28709;52.030;5.652;2023-09-18T07:44:57;19.40;99.90
43089;DHT22;28709;52.030;5.652;2023-09-18T07:47:22;19.40;99.90
43089;DHT22;28709;52.030;5.652;2023-09-18T07:49:48;19.40;99.90
43089;DHT22;28709;52.030;5.652;2023-09-18T07:52:14;19.40;99.90
43089;DHT22;28709;52.030;5.652;2023-09-18T07:54:41;19.40;99.90
43089;DHT22;28709;52.030;5.652;2023-09-18T07:57:06;19.50;99.90
43089;DHT22;28709;52.030;5.652;2023-09-18T07:59:35;19.50;99.90
43089;DHT22;28709;52.030;5.652;2023-09-18T08:02:01;19.60;99.90
43089;DHT22;28709;52.030;5.652;2023-09-18T08:04:27;19.50;99.90
43089;DHT22;28709;52.030;5.652;2023-09-18T08:06:53;19.50;99.90
43089;DHT22;28709;52.030;5.652;2023-09-18T08:09:18;19.50;99.90
43089;DHT22;28709;52.030;5.652;2023-09-18T08:11:44;19.50;99.90
43089;DHT22;28709;52.030;5.652;2023-09-18T08:14:10;19.60;99.90
43089;DHT22;28709;52.030;5.652;2023-09-18T08:16:38;19.60;99.90
43089;DHT22;28709;52.030;5.652;2023-09-18T08:19:04;19.70;99.90
43089;DHT22;28709;52.030;5.652;2023-09-18T08:21:29;19.70;99.90
43089;DHT22;28709;52.030;5.652;2023-09-18T08:23:55;19.60;99.90
43089;DHT22;28709;52.030;5.652;2023-09-18T08:26:22;19.60;99.90
43089;DHT22;28709;52.030;5.652;2023-09-18T08:28:47;19.60;99.90
43089;DHT22;28709;52.030;5.652;2023-09-18T08:31:13;19.60;99.90
43089;DHT22;28709;52.030;5.652;2023-09-18T08:33:42;19.70;99.90
43089;DHT22;28709;52.030;5.652;2023-09-18T08:36:08;19.70;99.90
43089;DHT22;28709;52.030;5.652;2023-09-18T08:38:33;19.70;99.90
43089;DHT22;28709;52.030;5.652;2023-09-18T08:40:59;19.70;99.90
43089;DHT22;28709;52.030;5.652;2023-09-18T08:43:26;19.70;99.90
43089;DHT22;28709;52.030;5.652;2023-09-18T08:45:53;19.70;99.90
43089;DHT22;28709;52.030;5.652;2023-09-18T08:48:20;19.70;99.90
43089;DHT22;28709;52.030;5.652;2023-09-18T08:50:47;19.90;99.90
43089;DHT22;28709;52.030;5.652;2023-09-18T08:53:13;20.00;99.90
43089;DHT22;28709;52.030;5.652;2023-09-18T08:55:38;20.10;99.90
43089;DHT22;28709;52.030;5.652;2023-09-18T08:58:06;20.20;99.90
43089;DHT22;28709;52.030;5.652;2023-09-18T09:00:33;20.20;99.90
43089;DHT22;28709;52.030;5.652;2023-09-18T09:03:01;20.30;99.90
43089;DHT22;28709;52.030;5.652;2023-09-18T09:05:26;20.30;99.90
43089;DHT22;28709;52.030;5.652;2023-09-18T09:07:52;20.30;99.90
43089;DHT22;28709;52.030;5.652;2023-09-18T09:10:18;20.20;99.90
43089;DHT22;28709;52.030;5.652;2023-09-18T09:12:55;20.20;99.90
43089;DHT22;28709;52.030;5.652;2023-09-18T09:15:27;20.20;99.90
43089;DHT22;28709;52.030;5.652;2023-09-18T09:18:06;20.30;99.90
43089;DHT22;28709;52.030;5.652;2023-09-18T09:20:33;20.30;99.90
43089;DHT22;28709;52.030;5.652;2023-09-18T09:23:06;20.40;99.90
43089;DHT22;28709;52.030;5.652;2023-09-18T09:25:35;20.40;99.90
43089;DHT22;28709;52.030;5.652;2023-09-18T09:28:06;20.60;99.90
43089;DHT22;28709;52.030;5.652;2023-09-18T09:30:34;20.70;99.90
43089;DHT22;28709;52.030;5.652;2023-09-18T09:33:02;20.80;99.90
43089;DHT22;28709;52.030;5.652;2023-09-18T09:35:33;21.00;99.90
43089;DHT22;28709;52.030;5.652;2023-09-18T09:38:10;21.10;99.90
43089;DHT22;28709;52.030;5.652;2023-09-18T09:40:39;21.40;99.90
43089;DHT22;28709;52.030;5.652;2023-09-18T09:43:08;21.80;99.90
43089;DHT22;28709;52.030;5.652;2023-09-18T09:45:35;22.10;99.90
43089;DHT22;28709;52.030;5.652;2023-09-18T09:48:05;22.30;99.90
43089;DHT22;28709;52.030;5.652;2023-09-18T09:50:32;22.50;99.90
43089;DHT22;28709;52.030;5.652;2023-09-18T09:52:58;22.70;99.90
43089;DHT22;28709;52.030;5.652;2023-09-18T09:57:53;23.30;99.90
43089;DHT22;28709;52.030;5.652;2023-09-18T10:00:19;23.50;99.90
43089;DHT22;28709;52.030;5.652;2023-09-18T10:03:04;23.50;99.90
43089;DHT22;28709;52.030;5.652;2023-09-18T10:05:35;23.30;99.90
43089;DHT22;28709;52.030;5.652;2023-09-18T10:08:17;23.10;99.90
43089;DHT22;28709;52.030;5.652;2023-09-18T10:10:46;22.90;99.90
43089;DHT22;28709;52.030;5.652;2023-09-18T10:13:31;22.70;99.90
43089;DHT22;28709;52.030;5.652;2023-09-18T10:15:58;22.40;99.90
43089;DHT22;28709;52.030;5.652;2023-09-18T10:18:55;22.20;99.90
43089;DHT22;28709;52.030;5.652;2023-09-18T10:26:28;21.80;99.90
43089;DHT22;28709;52.030;5.652;2023-09-18T10:28:56;21.60;99.90
43089;DHT22;28709;52.030;5.652;2023-09-18T10:31:28;21.60;99.90
43089;DHT22;28709;52.030;5.652;2023-09-18T10:33:57;21.40;99.90
43089;DHT22;28709;52.030;5.652;2023-09-18T10:36:24;21.30;99.90
43089;DHT22;28709;52.030;5.652;2023-09-18T10:38:51;21.30;99.90
43089;DHT22;28709;52.030;5.652;2023-09-18T10:41:21;21.20;99.90
43089;DHT22;28709;52.030;5.652;2023-09-18T10:43:46;21.20;99.90
43089;DHT22;28709;52.030;5.652;2023-09-18T10:46:15;21.20;99.90
43089;DHT22;28709;52.030;5.652;2023-09-18T10:48:43;21.30;99.90
43089;DHT22;28709;52.030;5.652;2023-09-18T10:51:10;21.20;99.90
43089;DHT22;28709;52.030;5.652;2023-09-18T10:53:36;21.30;99.90
43089;DHT22;28709;52.030;5.652;2023-09-18T10:56:02;21.30;99.90
43089;DHT22;28709;52.030;5.652;2023-09-18T10:58:32;21.20;99.90
43089;DHT22;28709;52.030;5.652;2023-09-18T11:01:02;21.10;99.90
43089;DHT22;28709;52.030;5.652;2023-09-18T11:03:27;21.10;99.90
43089;DHT22;28709;52.030;5.652;2023-09-18T11:06:04;21.10;99.90
43089;DHT22;28709;52.030;5.652;2023-09-18T11:08:44;21.20;99.90
43089;DHT22;28709;52.030;5.652;2023-09-18T11:11:12;21.50;99.90
43089;DHT22;28709;52.030;5.652;2023-09-18T11:13:46;22.00;99.90
43089;DHT22;28709;52.030;5.652;2023-09-18T11:21:32;22.90;99.90
43089;DHT22;28709;52.030;5.652;2023-09-18T11:24:21;22.80;99.90
43089;DHT22;28709;52.030;5.652;2023-09-18T11:26:49;22.60;99.90
43089;DHT22;28709;52.030;5.652;2023-09-18T11:29:17;22.50;99.90
43089;DHT22;28709;52.030;5.652;2023-09-18T11:31:49;22.70;99.90
43089;DHT22;28709;52.030;5.652;2023-09-18T11:34:30;23.00;99.90
43089;DHT22;28709;52.030;5.652;2023-09-18T11:37:22;23.30;99.90
43089;DHT22;28709;52.030;5.652;2023-09-18T11:39:52;23.60;99.90
43089;DHT22;28709;52.030;5.652;2023-09-18T11:42:19;23.80;99.90
43089;DHT22;28709;52.030;5.652;2023-09-18T11:44:49;23.80;99.90
43089;DHT22;28709;52.030;5.652;2023-09-18T11:47:17;23.80;99.90
43089;DHT22;28709;52.030;5.652;2023-09-18T11:49:52;24.00;99.90
43089;DHT22;28709;52.030;5.652;2023-09-18T11:52:25;24.10;99.90
43089;DHT22;28709;52.030;5.652;2023-09-18T11:54:52;24.10;99.90
43089;DHT22;28709;52.030;5.652;2023-09-18T11:57:18;24.10;99.90
43089;DHT22;28709;52.030;5.652;2023-09-18T11:59:47;24.10;99.90
43089;DHT22;28709;52.030;5.652;2023-09-18T12:02:17;24.00;99.90
43089;DHT22;28709;52.030;5.652;2023-09-18T12:04:51;24.00;99.90
43089;DHT22;28709;52.030;5.652;2023-09-18T12:07:17;23.80;99.90
43089;DHT22;28709;52.030;5.652;2023-09-18T12:09:44;23.80;99.90
43089;DHT22;28709;52.030;5.652;2023-09-18T12:12:10;23.90;99.90
43089;DHT22;28709;52.030;5.652;2023-09-18T12:14:40;24.00;99.90
43089;DHT22;28709;52.030;5.652;2023-09-18T12:17:08;24.20;99.90
43089;DHT22;28709;52.030;5.652;2023-09-18T12:19:34;24.00;99.90
43089;DHT22;28709;52.030;5.652;2023-09-18T12:22:01;23.60;99.90
43089;DHT22;28709;52.030;5.652;2023-09-18T12:24:27;23.40;99.90
43089;DHT22;28709;52.030;5.652;2023-09-18T12:26:54;23.20;99.90
43089;DHT22;28709;52.030;5.652;2023-09-18T12:29:20;23.20;99.90
43089;DHT22;28709;52.030;5.652;2023-09-18T12:31:46;23.10;99.90
43089;DHT22;28709;52.030;5.652;2023-09-18T12:34:20;23.00;99.90
43089;DHT22;28709;52.030;5.652;2023-09-18T12:36:47;23.00;99.90
43089;DHT22;28709;52.030;5.652;2023-09-18T12:39:13;23.30;99.90
43089;DHT22;28709;52.030;5.652;2023-09-18T12:41:46;23.60;99.90
43089;DHT22;28709;52.030;5.652;2023-09-18T12:44:12;23.90;99.90
43089;DHT22;28709;52.030;5.652;2023-09-18T12:46:40;24.10;99.90
43089;DHT22;28709;52.030;5.652;2023-09-18T12:49:22;24.30;99.90
43089;DHT22;28709;52.030;5.652;2023-09-18T12:52:01;24.20;99.90
43089;DHT22;28709;52.030;5.652;2023-09-18T12:54:56;24.30;99.90
43089;DHT22;28709;52.030;5.652;2023-09-18T12:57:25;24.50;99.90
43089;DHT22;28709;52.030;5.652;2023-09-18T12:59:50;24.70;99.90
43089;DHT22;28709;52.030;5.652;2023-09-18T13:02:18;24.60;99.90
43089;DHT22;28709;52.030;5.652;2023-09-18T13:04:56;24.50;99.90
43089;DHT22;28709;52.030;5.652;2023-09-18T13:07:23;24.40;99.90
43089;DHT22;28709;52.030;5.652;2023-09-18T13:10:08;24.30;99.90
43089;DHT22;28709;52.030;5.652;2023-09-18T13:12:52;24.30;99.90
43089;DHT22;28709;52.030;5.652;2023-09-18T13:15:31;24.20;99.90
43089;DHT22;28709;52.030;5.652;2023-09-18T13:17:59;24.30;99.90
43089;DHT22;28709;52.030;5.652;2023-09-18T13:20:27;24.40;99.90
43089;DHT22;28709;52.030;5.652;2023-09-18T13:22:56;24.40;99.90
43089;DHT22;28709;52.030;5.652;2023-09-18T13:25:28;24.30;99.90
43089;DHT22;28709;52.030;5.652;2023-09-18T13:27:54;24.10;99.90
43089;DHT22;28709;52.030;5.652;2023-09-18T13:30:21;24.00;99.90
43089;DHT22;28709;52.030;5.652;2023-09-18T13:32:49;23.90;99.90
43089;DHT22;28709;52.030;5.652;2023-09-18T13:35:16;23.80;99.90
43089;DHT22;28709;52.030;5.652;2023-09-18T13:37:42;23.70;99.90
43089;DHT22;28709;52.030;5.652;2023-09-18T13:40:08;23.70;99.90
43089;DHT22;28709;52.030;5.652;2023-09-18T13:42:38;23.90;99.90
43089;DHT22;28709;52.030;5.652;2023-09-18T13:45:05;24.00;99.90
43089;DHT22;28709;52.030;5.652;2023-09-18T13:47:35;24.10;99.90
43089;DHT22;28709;52.030;5.652;2023-09-18T13:50:02;24.00;99.90
43089;DHT22;28709;52.030;5.652;2023-09-18T13:52:32;24.00;99.90
43089;DHT22;28709;52.030;5.652;2023-09-18T13:54:59;24.00;99.90
43089;DHT22;28709;52.030;5.652;2023-09-18T13:57:25;23.90;99.90
43089;DHT22;28709;52.030;5.652;2023-09-18T13:59:51;23.80;99.90
43089;DHT22;28709;52.030;5.652;2023-09-18T14:02:18;23.60;99.90
43089;DHT22;28709;52.030;5.652;2023-09-18T14:04:44;23.60;99.90
43089;DHT22;28709;52.030;5.652;2023-09-18T14:07:11;23.70;99.90
43089;DHT22;28709;52.030;5.652;2023-09-18T14:09:37;23.70;99.90
43089;DHT22;28709;52.030;5.652;2023-09-18T14:12:04;23.50;99.90
43089;DHT22;28709;52.030;5.652;2023-09-18T14:14:33;23.40;99.90
43089;DHT22;28709;52.030;5.652;2023-09-18T14:16:59;23.30;99.90
43089;DHT22;28709;52.030;5.652;2023-09-18T14:19:24;23.30;99.90
43089;DHT22;28709;52.030;5.652;2023-09-18T14:21:51;23.30;99.90
43089;DHT22;28709;52.030;5.652;2023-09-18T14:24:17;23.30;99.90
43089;DHT22;28709;52.030;5.652;2023-09-18T14:26:47;23.30;99.90
43089;DHT22;28709;52.030;5.652;2023-09-18T14:29:13;23.30;99.90
43089;DHT22;28709;52.030;5.652;2023-09-18T14:31:39;23.20;99.90
43089;DHT22;28709;52.030;5.652;2023-09-18T14:34:05;23.20;99.90
43089;DHT22;28709;52.030;5.652;2023-09-18T14:36:32;23.20;99.90
43089;DHT22;28709;52.030;5.652;2023-09-18T14:39:00;23.20;99.90
43089;DHT22;28709;52.030;5.652;2023-09-18T14:41:26;23.10;99.90
43089;DHT22;28709;52.030;5.652;2023-09-18T14:43:52;23.20;99.90
43089;DHT22;28709;52.030;5.652;2023-09-18T14:46:18;23.20;99.90
43089;DHT22;28709;52.030;5.652;2023-09-18T14:48:44;23.20;99.90
43089;DHT22;28709;52.030;5.652;2023-09-18T14:51:10;23.10;99.90
43089;DHT22;28709;52.030;5.652;2023-09-18T14:53:37;23.10;99.90
43089;DHT22;28709;52.030;5.652;2023-09-18T14:56:02;23.00;99.90
43089;DHT22;28709;52.030;5.652;2023-09-18T14:58:29;23.00;99.90
43089;DHT22;28709;52.030;5.652;2023-09-18T15:00:56;23.00;99.90
43089;DHT22;28709;52.030;5.652;2023-09-18T15:03:22;23.00;99.90
43089;DHT22;28709;52.030;5.652;2023-09-18T15:05:50;23.00;99.90
43089;DHT22;28709;52.030;5.652;2023-09-18T15:08:16;23.00;99.90
43089;DHT22;28709;52.030;5.652;2023-09-18T15:10:43;22.90;99.90
43089;DHT22;28709;52.030;5.652;2023-09-18T15:13:09;23.00;99.90
43089;DHT22;28709;52.030;5.652;2023-09-18T15:15:35;22.90;99.90
43089;DHT22;28709;52.030;5.652;2023-09-18T15:18:01;22.80;99.90
43089;DHT22;28709;52.030;5.652;2023-09-18T15:20:27;22.80;99.90
43089;DHT22;28709;52.030;5.652;2023-09-18T15:22:53;22.70;99.90
43089;DHT22;28709;52.030;5.652;2023-09-18T15:25:21;21.80;99.90
43089;DHT22;28709;52.030;5.652;2023-09-18T15:27:47;20.40;99.90
43089;DHT22;28709;52.030;5.652;2023-09-18T15:30:13;19.00;99.90
43089;DHT22;28709;52.030;5.652;2023-09-18T15:32:51;17.90;99.90
43089;DHT22;28709;52.030;5.652;2023-09-18T15:35:27;17.20;99.90
43089;DHT22;28709;52.030;5.652;2023-09-18T15:37:53;16.80;99.90
43089;DHT22;28709;52.030;5.652;2023-09-18T15:40:20;16.60;99.90
43089;DHT22;28709;52.030;5.652;2023-09-18T15:42:49;16.50;99.90
43089;DHT22;28709;52.030;5.652;2023-09-18T15:45:15;16.30;99.90
43089;DHT22;28709;52.030;5.652;2023-09-18T15:47:41;16.10;99.90